Time;durP1;ratioP1;P1;durP2;ratioP2;P2;SDS_P1;SDS_P2;PMS_P1;PMS_P2;Temp;Humidity;BMP_temperature;BMP_pressure;BME280_temperature;BME280_humidity;BME280_pressure;Samples;Min_cycle;Max_cycle;Signal;HPM_P1;HPM_P2
2023/06/11 00:00:38;;;;;;;7.38;1.85;;;;;;;;;;5176109;23;20027;-59
2023/06/11 00:02:58;;;;;;;10.13;1.80;;;;;;;;;;5176022;23;20027;-60
2023/06/11 00:05:19;;;;;;;3.97;1.40;;;;;;;;;;5176197;23;20038;-60
2023/06/11 00:07:40;;;;;;;4.10;1.85;;;;;;;;;;5176081;23;20027;-59
2023/06/11 00:10:03;;;;;;;4.53;1.52;;;;;;;;;;5176049;23;20062;-59
2023/06/11 00:12:23;;;;;;;3.10;1.50;;;;;;;;;;5176181;23;20022;-60
2023/06/11 00:14:43;;;;;;;2.65;1.52;;;;;;;;;;5176081;23;20031;-59
2023/06/11 00:17:04;;;;;;;7.30;1.55;;;;;;;;;;5176185;23;20066;-59
2023/06/11 00:19:28;;;;;;;2.05;1.63;;;;;;;;;;5176111;23;20238;-59
2023/06/11 00:21:49;;;;;;;6.22;2.20;;;;;;;;;;5175966;23;20027;-60
2023/06/11 00:24:09;;;;;;;7.43;2.10;;;;;;;;;;5175950;23;20071;-60
2023/06/11 00:26:29;;;;;;;6.38;1.67;;;;;;;;;;5175955;23;20039;-60
2023/06/11 00:28:50;;;;;;;4.63;1.55;;;;;;;;;;5175970;23;20058;-59
2023/06/11 00:31:10;;;;;;;3.17;1.60;;;;;;;;;;5175891;23;20023;-60
2023/06/11 00:33:30;;;;;;;3.28;1.38;;;;;;;;;;5175912;23;20058;-60
2023/06/11 00:35:50;;;;;;;2.08;1.80;;;;;;;;;;5176005;23;20047;-59
2023/06/11 00:38:11;;;;;;;2.67;1.80;;;;;;;;;;5175859;23;20066;-59
2023/06/11 00:40:32;;;;;;;5.45;1.88;;;;;;;;;;5175766;23;20103;-60
2023/06/11 00:42:52;;;;;;;2.45;1.70;;;;;;;;;;5176636;23;20065;-59
2023/06/11 00:45:13;;;;;;;5.18;2.30;;;;;;;;;;5178702;23;20334;-59
2023/06/11 00:47:36;;;;;;;4.53;1.92;;;;;;;;;;5178605;23;20078;-59
2023/06/11 00:49:57;;;;;;;4.00;1.80;;;;;;;;;;5178606;23;20022;-59
2023/06/11 00:52:19;;;;;;;2.45;1.80;;;;;;;;;;5178651;23;20030;-59
2023/06/11 00:54:39;;;;;;;3.63;1.70;;;;;;;;;;5178610;23;20027;-59
2023/06/11 00:57:01;;;;;;;7.30;1.63;;;;;;;;;;5178556;23;20249;-59
2023/06/11 00:59:22;;;;;;;4.18;1.63;;;;;;;;;;5178689;23;20063;-59
2023/06/11 01:01:45;;;;;;;6.68;1.95;;;;;;;;;;5177583;22;20019;-59
2023/06/11 01:04:07;;;;;;;1.67;1.48;;;;;;;;;;5151589;23;20111;-59
2023/06/11 01:06:29;;;;;;;2.08;1.55;;;;;;;;;;5130495;23;20059;-59
2023/06/11 01:08:55;;;;;;;11.93;2.42;;;;;;;;;;5152727;23;20219;-59
2023/06/11 01:11:21;;;;;;;3.80;1.63;;;;;;;;;;5153271;23;20329;-59
2023/06/11 01:13:41;;;;;;;4.95;2.17;;;;;;;;;;5153313;23;20047;-58
2023/06/11 01:16:04;;;;;;;6.28;2.55;;;;;;;;;;5153373;23;20035;-59
2023/06/11 01:18:28;;;;;;;6.38;2.00;;;;;;;;;;5153273;23;20330;-59
2023/06/11 01:20:57;;;;;;;3.13;1.75;;;;;;;;;;5153148;23;20031;-59
2023/06/11 01:23:24;;;;;;;2.55;1.52;;;;;;;;;;5153138;23;20023;-59
2023/06/11 01:25:50;;;;;;;3.28;1.83;;;;;;;;;;5153305;23;20040;-59
2023/06/11 01:28:16;;;;;;;3.78;2.30;;;;;;;;;;5153238;23;20027;-59
2023/06/11 01:30:37;;;;;;;3.78;1.85;;;;;;;;;;5153076;23;20023;-59
2023/06/11 01:32:58;;;;;;;4.07;1.98;;;;;;;;;;5130906;23;20263;-59
2023/06/11 01:35:18;;;;;;;5.40;1.73;;;;;;;;;;5153230;23;20027;-59
2023/06/11 01:37:38;;;;;;;7.78;2.20;;;;;;;;;;5130959;23;20024;-58
2023/06/11 01:39:59;;;;;;;4.10;3.13;;;;;;;;;;5160257;23;20414;-58
2023/06/11 01:42:19;;;;;;;3.63;2.17;;;;;;;;;;5178256;23;20031;-59
2023/06/11 01:44:40;;;;;;;1.88;1.48;;;;;;;;;;5178291;23;20087;-59
2023/06/11 01:47:00;;;;;;;8.13;2.38;;;;;;;;;;5178177;23;20031;-59
2023/06/11 01:49:20;;;;;;;4.57;1.50;;;;;;;;;;5178187;23;20026;-59
2023/06/11 01:51:41;;;;;;;43.08;2.85;;;;;;;;;;5178079;23;20027;-59
2023/06/11 01:54:01;;;;;;;5.00;1.83;;;;;;;;;;5177661;23;20023;-59
2023/06/11 01:56:21;;;;;;;6.38;1.77;;;;;;;;;;5176519;23;20031;-59
2023/06/11 01:58:45;;;;;;;1.50;1.42;;;;;;;;;;5176592;23;20024;-59
2023/06/11 02:01:08;;;;;;;4.15;2.25;;;;;;;;;;5176571;23;20086;-58
2023/06/11 02:03:28;;;;;;;74.22;5.10;;;;;;;;;;5176539;23;20267;-58
2023/06/11 02:05:49;;;;;;;43.70;4.47;;;;;;;;;;5176617;23;20103;-58
2023/06/11 02:08:10;;;;;;;3.47;1.63;;;;;;;;;;5176594;23;20055;-58
2023/06/11 02:10:31;;;;;;;3.10;2.22;;;;;;;;;;5176585;23;20083;-58
2023/06/11 02:12:51;;;;;;;3.28;2.17;;;;;;;;;;5176573;23;20022;-59
2023/06/11 02:15:12;;;;;;;5.10;3.20;;;;;;;;;;5176522;23;20027;-58
2023/06/11 02:17:33;;;;;;;2.92;2.67;;;;;;;;;;5176425;23;20038;-58
2023/06/11 02:19:53;;;;;;;3.72;2.40;;;;;;;;;;5176446;23;20055;-58
2023/06/11 02:22:13;;;;;;;7.45;2.28;;;;;;;;;;5176383;23;20031;-58
2023/06/11 02:24:33;;;;;;;8.43;2.03;;;;;;;;;;5176412;23;20035;-59
2023/06/11 02:26:54;;;;;;;5.10;2.72;;;;;;;;;;5176455;23;20031;-58
2023/06/11 02:29:14;;;;;;;3.78;2.22;;;;;;;;;;5176547;23;20246;-59
2023/06/11 02:31:34;;;;;;;18.38;2.03;;;;;;;;;;5176447;23;20076;-59
2023/06/11 02:33:55;;;;;;;14.75;2.25;;;;;;;;;;5176479;23;20398;-59
2023/06/11 02:36:15;;;;;;;24.67;2.03;;;;;;;;;;5176588;23;20083;-59
2023/06/11 02:38:35;;;;;;;40.78;2.33;;;;;;;;;;5176464;23;20093;-58
2023/06/11 02:40:55;;;;;;;67.57;3.05;;;;;;;;;;5176336;22;20088;-58
2023/06/11 02:43:15;;;;;;;109.57;5.60;;;;;;;;;;5176327;23;20254;-58
2023/06/11 02:45:35;;;;;;;136.75;7.72;;;;;;;;;;5176430;23;20069;-59
2023/06/11 02:47:56;;;;;;;100.80;4.90;;;;;;;;;;5176350;23;20070;-59
2023/06/11 02:50:16;;;;;;;2.85;2.08;;;;;;;;;;5176371;23;20250;-59
2023/06/11 02:52:36;;;;;;;44.78;3.83;;;;;;;;;;5176395;23;20023;-59
2023/06/11 02:54:57;;;;;;;13.02;2.28;;;;;;;;;;5176313;23;20087;-59
2023/06/11 02:57:17;;;;;;;6.70;1.83;;;;;;;;;;5176440;23;20031;-59
2023/06/11 02:59:37;;;;;;;2.47;2.38;;;;;;;;;;5176408;23;20035;-58
2023/06/11 03:01:57;;;;;;;6.22;2.30;;;;;;;;;;5176267;23;20352;-59
2023/06/11 03:04:18;;;;;;;2.13;1.92;;;;;;;;;;5176377;23;20066;-59
2023/06/11 03:06:38;;;;;;;3.67;2.15;;;;;;;;;;5176299;23;20061;-58
2023/06/11 03:08:58;;;;;;;5.35;1.85;;;;;;;;;;5176372;23;20023;-59
2023/06/11 03:11:18;;;;;;;3.20;1.77;;;;;;;;;;5176329;23;20027;-59
2023/06/11 03:13:39;;;;;;;2.67;2.40;;;;;;;;;;5176451;23;20070;-58
2023/06/11 03:15:59;;;;;;;4.90;2.20;;;;;;;;;;5176339;23;20023;-59
2023/06/11 03:18:19;;;;;;;1.88;1.77;;;;;;;;;;5176346;23;20211;-59
2023/06/11 03:20:40;;;;;;;2.30;2.15;;;;;;;;;;5176398;23;20030;-59
2023/06/11 03:23:00;;;;;;;3.45;1.90;;;;;;;;;;5176244;23;20119;-59
2023/06/11 03:25:20;;;;;;;16.45;1.92;;;;;;;;;;5176181;23;20218;-58
2023/06/11 03:27:41;;;;;;;10.20;1.80;;;;;;;;;;5176239;23;20114;-59
2023/06/11 03:30:01;;;;;;;4.18;2.42;;;;;;;;;;5176322;23;20023;-58
2023/06/11 03:32:21;;;;;;;3.33;1.75;;;;;;;;;;5176208;23;20075;-59
2023/06/11 03:34:42;;;;;;;5.70;1.58;;;;;;;;;;5176210;23;20034;-59
2023/06/11 03:37:03;;;;;;;1.48;1.38;;;;;;;;;;5176335;23;20047;-59
2023/06/11 03:39:23;;;;;;;2.70;1.60;;;;;;;;;;5176228;23;20052;-59
2023/06/11 03:41:43;;;;;;;9.10;2.17;;;;;;;;;;5176133;23;20489;-59
2023/06/11 03:44:04;;;;;;;5.07;1.52;;;;;;;;;;5176290;23;20088;-58
2023/06/11 03:46:24;;;;;;;4.30;2.25;;;;;;;;;;5176183;23;20364;-59
2023/06/11 03:48:45;;;;;;;2.55;1.70;;;;;;;;;;5176184;23;20027;-59
2023/06/11 03:51:05;;;;;;;8.38;1.80;;;;;;;;;;5176141;23;20078;-59
2023/06/11 03:53:26;;;;;;;3.60;1.27;;;;;;;;;;5176172;23;20023;-59
2023/06/11 03:55:46;;;;;;;4.45;2.05;;;;;;;;;;5176017;23;20023;-59
2023/06/11 03:58:07;;;;;;;3.08;2.45;;;;;;;;;;5176110;23;20246;-59
2023/06/11 04:00:30;;;;;;;3.00;1.58;;;;;;;;;;5176130;23;20406;-59
2023/06/11 04:02:51;;;;;;;26.92;2.00;;;;;;;;;;5176069;23;20026;-59
2023/06/11 04:05:11;;;;;;;33.58;2.22;;;;;;;;;;5176042;23;20338;-59
2023/06/11 04:07:32;;;;;;;1.88;1.50;;;;;;;;;;5176185;23;20027;-59
2023/06/11 04:09:52;;;;;;;172.43;7.75;;;;;;;;;;5176059;23;20022;-59
2023/06/11 04:12:12;;;;;;;45.25;3.15;;;;;;;;;;5176079;23;20074;-59
2023/06/11 04:14:33;;;;;;;4.85;1.50;;;;;;;;;;5176090;23;20368;-58
2023/06/11 04:16:53;;;;;;;1.38;1.33;;;;;;;;;;5176064;23;20249;-58
2023/06/11 04:19:14;;;;;;;5.35;2.17;;;;;;;;;;5176151;23;20026;-59
2023/06/11 04:21:35;;;;;;;14.75;2.80;;;;;;;;;;5175854;23;20023;-59
2023/06/11 04:23:56;;;;;;;2.63;2.13;;;;;;;;;;5175940;23;20333;-59
2023/06/11 04:26:19;;;;;;;5.07;2.47;;;;;;;;;;5175886;23;20211;-59
2023/06/11 04:28:40;;;;;;;8.88;2.10;;;;;;;;;;5175966;23;20027;-59
2023/06/11 04:31:01;;;;;;;84.55;3.97;;;;;;;;;;5175984;23;20103;-59
2023/06/11 04:33:24;;;;;;;1.58;1.50;;;;;;;;;;5175923;23;20031;-59
2023/06/11 04:35:47;;;;;;;10.05;2.00;;;;;;;;;;5175924;23;20034;-59
2023/06/11 04:38:08;;;;;;;24.20;2.40;;;;;;;;;;5175864;23;20062;-59
2023/06/11 04:40:30;;;;;;;17.08;1.77;;;;;;;;;;5175723;22;20027;-59
2023/06/11 04:42:50;;;;;;;9.73;1.88;;;;;;;;;;5175625;23;20038;-59
2023/06/11 04:45:11;;;;;;;39.72;2.50;;;;;;;;;;5175761;23;20023;-59
2023/06/11 04:47:33;;;;;;;51.83;2.92;;;;;;;;;;5175876;23;20062;-59
2023/06/11 04:49:56;;;;;;;114.40;5.32;;;;;;;;;;5175737;23;20114;-59
2023/06/11 04:52:17;;;;;;;14.25;1.73;;;;;;;;;;5175746;23;20218;-59
2023/06/11 04:54:41;;;;;;;40.50;2.80;;;;;;;;;;5175879;23;20063;-59
2023/06/11 04:57:01;;;;;;;20.45;2.35;;;;;;;;;;5175751;23;20073;-59
2023/06/11 04:59:21;;;;;;;39.60;3.30;;;;;;;;;;5175685;23;20085;-59
2023/06/11 05:01:50;;;;;;;65.55;5.13;;;;;;;;;;5175642;23;20027;-59
2023/06/11 05:04:10;;;;;;;44.03;3.60;;;;;;;;;;5175712;23;20075;-58
2023/06/11 05:06:33;;;;;;;43.55;2.95;;;;;;;;;;5175658;23;20031;-58
2023/06/11 05:08:54;;;;;;;137.60;7.82;;;;;;;;;;5175689;23;20035;-59
2023/06/11 05:11:14;;;;;;;41.88;4.13;;;;;;;;;;5175674;23;20334;-59
2023/06/11 05:13:37;;;;;;;38.00;4.25;;;;;;;;;;5175592;23;20072;-59
2023/06/11 05:15:58;;;;;;;20.00;3.25;;;;;;;;;;5175596;23;20027;-58
2023/06/11 05:18:18;;;;;;;4.55;2.30;;;;;;;;;;5175540;23;20023;-57
2023/06/11 05:20:38;;;;;;;4.53;2.35;;;;;;;;;;5175556;23;20027;-57
2023/06/11 05:22:59;;;;;;;2.38;2.28;;;;;;;;;;5175385;23;20111;-57
2023/06/11 05:25:19;;;;;;;2.83;2.63;;;;;;;;;;5175416;23;20043;-58
2023/06/11 05:27:40;;;;;;;2.17;1.88;;;;;;;;;;5175540;23;20031;-58
2023/06/11 05:30:02;;;;;;;2.13;2.13;;;;;;;;;;5175744;23;20027;-58
2023/06/11 05:32:22;;;;;;;1.98;1.67;;;;;;;;;;5176691;23;20074;-58
2023/06/11 05:34:43;;;;;;;1.52;1.50;;;;;;;;;;5176806;23;20058;-58
2023/06/11 05:37:03;;;;;;;1.70;1.60;;;;;;;;;;5176664;23;20023;-58
2023/06/11 05:39:23;;;;;;;1.70;1.60;;;;;;;;;;5176657;23;20026;-58
2023/06/11 05:41:44;;;;;;;2.20;2.10;;;;;;;;;;5176584;23;20022;-58
2023/06/11 05:44:05;;;;;;;2.17;1.65;;;;;;;;;;5176708;23;20276;-58
2023/06/11 05:46:26;;;;;;;2.45;1.50;;;;;;;;;;5176610;23;20278;-58
2023/06/11 05:48:47;;;;;;;2.58;1.45;;;;;;;;;;5176632;23;20066;-58
2023/06/11 05:51:07;;;;;;;1.45;1.45;;;;;;;;;;5176623;23;20058;-58
2023/06/11 05:53:28;;;;;;;3.55;1.73;;;;;;;;;;5176569;23;20023;-59
2023/06/11 05:55:48;;;;;;;2.95;1.60;;;;;;;;;;5176587;23;20046;-58
2023/06/11 05:58:08;;;;;;;3.45;1.75;;;;;;;;;;5176661;23;20023;-58
2023/06/11 06:00:28;;;;;;;1.48;1.48;;;;;;;;;;5176579;23;20035;-58
2023/06/11 06:02:49;;;;;;;1.80;1.70;;;;;;;;;;5176522;23;20058;-59
2023/06/11 06:05:09;;;;;;;1.67;1.55;;;;;;;;;;5176705;23;20035;-59
2023/06/11 06:07:30;;;;;;;1.55;1.52;;;;;;;;;;5176571;23;20057;-58
2023/06/11 06:09:50;;;;;;;2.67;1.55;;;;;;;;;;5176601;23;20051;-59
2023/06/11 06:12:11;;;;;;;3.50;1.40;;;;;;;;;;5176569;23;20027;-59
2023/06/11 06:14:31;;;;;;;1.85;1.40;;;;;;;;;;5176504;23;20024;-59
2023/06/11 06:16:51;;;;;;;2.17;1.63;;;;;;;;;;5176433;23;20027;-59
2023/06/11 06:19:11;;;;;;;4.85;1.52;;;;;;;;;;5176520;23;20039;-59
2023/06/11 06:21:32;;;;;;;2.75;1.15;;;;;;;;;;5176531;23;20062;-58
2023/06/11 06:23:52;;;;;;;1.42;1.20;;;;;;;;;;5176441;23;20135;-59
2023/06/11 06:26:13;;;;;;;1.27;1.20;;;;;;;;;;5176453;23;20027;-59
2023/06/11 06:28:35;;;;;;;2.33;1.10;;;;;;;;;;5176565;23;20088;-58
2023/06/11 06:30:56;;;;;;;1.65;1.55;;;;;;;;;;5176491;23;20022;-59
2023/06/11 06:33:16;;;;;;;1.60;1.50;;;;;;;;;;5176439;23;20027;-59
2023/06/11 06:35:37;;;;;;;1.15;1.05;;;;;;;;;;5176478;23;20079;-59
2023/06/11 06:37:58;;;;;;;1.15;1.10;;;;;;;;;;5176440;23;20050;-59
2023/06/11 06:40:18;;;;;;;1.10;1.00;;;;;;;;;;5176229;22;20058;-59
2023/06/11 06:42:39;;;;;;;2.05;1.00;;;;;;;;;;5176328;23;20027;-59
2023/06/11 06:45:00;;;;;;;1.30;0.90;;;;;;;;;;5176422;23;20023;-59
2023/06/11 06:47:20;;;;;;;1.00;1.00;;;;;;;;;;5176268;23;20063;-59
2023/06/11 06:49:40;;;;;;;0.98;0.98;;;;;;;;;;5176350;23;20055;-58
2023/06/11 06:52:00;;;;;;;2.33;1.02;;;;;;;;;;5176345;23;20321;-59
2023/06/11 06:54:21;;;;;;;1.20;1.00;;;;;;;;;;5176327;23;20026;-59
2023/06/11 06:56:41;;;;;;;0.93;0.93;;;;;;;;;;5176330;23;20088;-58
2023/06/11 06:59:01;;;;;;;0.90;0.90;;;;;;;;;;5176435;23;20410;-59
2023/06/11 07:01:22;;;;;;;1.15;1.10;;;;;;;;;;5176400;23;20022;-59
2023/06/11 07:03:42;;;;;;;0.90;0.90;;;;;;;;;;5176386;23;20027;-59
2023/06/11 07:06:03;;;;;;;1.98;0.90;;;;;;;;;;5176406;23;20062;-59
2023/06/11 07:08:23;;;;;;;0.90;0.90;;;;;;;;;;5176336;23;20043;-59
2023/06/11 07:10:51;;;;;;;1.55;0.90;;;;;;;;;;5154031;23;20031;-59
2023/06/11 07:13:12;;;;;;;0.80;0.80;;;;;;;;;;5176358;23;20022;-59
2023/06/11 07:15:32;;;;;;;2.38;2.17;;;;;;;;;;5176342;23;20034;-59
2023/06/11 07:17:53;;;;;;;2.22;0.90;;;;;;;;;;5176309;23;20156;-59
2023/06/11 07:20:13;;;;;;;4.65;0.90;;;;;;;;;;5176344;23;20057;-59
2023/06/11 07:22:34;;;;;;;1.50;0.85;;;;;;;;;;5176315;23;20219;-59
2023/06/11 07:24:56;;;;;;;1.15;1.00;;;;;;;;;;5176324;23;20057;-59
2023/06/11 07:27:16;;;;;;;0.80;0.80;;;;;;;;;;5176326;23;20072;-59
2023/06/11 07:29:38;;;;;;;0.70;0.70;;;;;;;;;;5176352;23;20031;-59
2023/06/11 07:31:58;;;;;;;2.42;0.80;;;;;;;;;;5176290;23;20022;-59
2023/06/11 07:34:20;;;;;;;2.83;0.90;;;;;;;;;;5176154;23;20027;-59
2023/06/11 07:36:40;;;;;;;0.80;0.80;;;;;;;;;;5176251;23;20119;-59
2023/06/11 07:39:01;;;;;;;1.95;1.80;;;;;;;;;;5176180;23;20023;-59
2023/06/11 07:41:21;;;;;;;2.17;0.80;;;;;;;;;;5176060;22;20026;-59
2023/06/11 07:43:41;;;;;;;2.05;0.85;;;;;;;;;;5176139;23;20215;-59
2023/06/11 07:46:03;;;;;;;1.08;0.70;;;;;;;;;;5176365;23;20038;-59
2023/06/11 07:48:23;;;;;;;0.70;0.70;;;;;;;;;;5176190;23;20027;-60
2023/06/11 07:50:44;;;;;;;1.02;0.80;;;;;;;;;;5176183;23;20023;-60
2023/06/11 07:53:04;;;;;;;0.70;0.70;;;;;;;;;;5175497;23;20023;-59
2023/06/11 07:55:24;;;;;;;1.85;0.80;;;;;;;;;;5176135;23;20027;-59
2023/06/11 07:57:45;;;;;;;1.15;0.70;;;;;;;;;;5176141;23;20022;-59
2023/06/11 08:00:12;;;;;;;0.70;0.70;;;;;;;;;;5175837;23;20027;-60
2023/06/11 08:02:32;;;;;;;1.58;0.80;;;;;;;;;;5175338;23;20058;-60
2023/06/11 08:04:53;;;;;;;0.68;0.68;;;;;;;;;;5176045;23;20066;-60
2023/06/11 08:07:13;;;;;;;0.80;0.80;;;;;;;;;;5175908;23;20023;-59
2023/06/11 08:09:37;;;;;;;0.70;0.70;;;;;;;;;;5176056;23;20027;-60
2023/06/11 08:11:58;;;;;;;1.40;0.70;;;;;;;;;;5175791;23;20289;-59
2023/06/11 08:14:20;;;;;;;1.85;0.65;;;;;;;;;;5175821;23;20035;-59
2023/06/11 08:16:40;;;;;;;0.70;0.70;;;;;;;;;;5175966;23;20072;-60
2023/06/11 08:19:01;;;;;;;1.10;0.82;;;;;;;;;;5175763;23;20027;-60
2023/06/11 08:21:21;;;;;;;2.50;0.70;;;;;;;;;;5175716;23;20027;-60
2023/06/11 08:23:41;;;;;;;0.60;0.60;;;;;;;;;;5175818;23;20215;-60
2023/06/11 08:26:02;;;;;;;0.60;0.60;;;;;;;;;;5175771;23;20050;-60
2023/06/11 08:28:23;;;;;;;0.60;0.60;;;;;;;;;;5175729;23;20027;-59
2023/06/11 08:30:43;;;;;;;0.98;0.70;;;;;;;;;;5175941;23;20062;-60
2023/06/11 08:33:04;;;;;;;0.60;0.60;;;;;;;;;;5175946;23;20091;-60
2023/06/11 08:35:24;;;;;;;0.60;0.60;;;;;;;;;;5175727;23;20089;-59
2023/06/11 08:37:44;;;;;;;3.22;0.80;;;;;;;;;;5175919;23;20023;-60
2023/06/11 08:40:06;;;;;;;0.60;0.60;;;;;;;;;;5175768;22;20027;-60
2023/06/11 08:42:26;;;;;;;2.20;0.60;;;;;;;;;;5175630;23;20023;-60
2023/06/11 08:44:47;;;;;;;0.60;0.60;;;;;;;;;;5175800;23;20322;-60
2023/06/11 08:47:09;;;;;;;0.70;0.70;;;;;;;;;;5175745;23;20051;-60
2023/06/11 08:49:30;;;;;;;1.55;0.60;;;;;;;;;;5175713;23;20215;-60
2023/06/11 08:51:51;;;;;;;1.38;0.60;;;;;;;;;;5175574;23;20090;-60
2023/06/11 08:54:12;;;;;;;0.70;0.60;;;;;;;;;;5175721;23;20088;-60
2023/06/11 08:56:32;;;;;;;2.05;0.60;;;;;;;;;;5175687;23;20022;-60
2023/06/11 08:58:53;;;;;;;0.57;0.57;;;;;;;;;;5175731;23;20063;-60
2023/06/11 09:01:14;;;;;;;0.63;0.63;;;;;;;;;;5175303;23;20046;-60
2023/06/11 09:03:34;;;;;;;0.60;0.60;;;;;;;;;;5175677;23;20023;-60
2023/06/11 09:05:55;;;;;;;4.57;1.15;;;;;;;;;;5176711;23;20054;-60
2023/06/11 09:08:15;;;;;;;0.98;0.70;;;;;;;;;;5176692;23;20030;-60
2023/06/11 09:10:47;;;;;;;0.93;0.60;;;;;;;;;;5176357;23;20027;-60
2023/06/11 09:13:08;;;;;;;;;;;;;;;;;;5177028;23;20330;-60
2023/06/11 09:15:28;;;;;;;1.13;0.60;;;;;;;;;;5176733;23;19954;-60
2023/06/11 09:17:49;;;;;;;0.50;0.50;;;;;;;;;;5176725;23;20042;-60
2023/06/11 09:20:13;;;;;;;0.60;0.60;;;;;;;;;;5176769;23;20214;-60
2023/06/11 09:22:35;;;;;;;1.25;0.50;;;;;;;;;;5176520;23;20050;-61
2023/06/11 09:24:56;;;;;;;;;;;;;;;;;;5177049;23;20103;-60
2023/06/11 09:27:16;;;;;;;0.50;0.50;;;;;;;;;;5176680;23;19919;-60
2023/06/11 09:29:36;;;;;;;0.50;0.50;;;;;;;;;;5176659;23;20074;-60
2023/06/11 09:32:06;;;;;;;5.47;0.50;;;;;;;;;;5176660;23;20027;-60
2023/06/11 09:34:47;;;;;;;4.28;1.17;;;;;;;;;;5176564;23;20073;-60
2023/06/11 09:37:11;;;;;;;0.60;0.60;;;;;;;;;;5176683;23;20082;-60
2023/06/11 09:39:31;;;;;;;3.92;0.60;;;;;;;;;;5176676;22;20043;-60
2023/06/11 09:41:52;;;;;;;0.60;0.60;;;;;;;;;;5176420;23;20407;-60
2023/06/11 09:44:13;;;;;;;1.23;0.60;;;;;;;;;;5176401;23;20069;-60
2023/06/11 09:46:33;;;;;;;0.50;0.50;;;;;;;;;;5176643;23;20022;-60
2023/06/11 09:48:54;;;;;;;1.20;0.60;;;;;;;;;;5176499;23;20334;-59
2023/06/11 09:51:21;;;;;;;0.82;0.60;;;;;;;;;;5176463;23;20026;-60
2023/06/11 09:53:42;;;;;;;0.50;0.50;;;;;;;;;;5176532;23;20026;-60
2023/06/11 09:56:04;;;;;;;0.50;0.50;;;;;;;;;;5176587;23;20023;-60
2023/06/11 09:58:33;;;;;;;1.17;0.60;;;;;;;;;;5176394;23;20071;-60
2023/06/11 10:01:00;;;;;;;0.60;0.60;;;;;;;;;;5176171;23;20092;-59
2023/06/11 10:03:22;;;;;;;0.50;0.50;;;;;;;;;;5175861;23;20035;-60
2023/06/11 10:05:42;;;;;;;0.52;0.52;;;;;;;;;;5176072;23;20026;-60
2023/06/11 10:08:15;;;;;;;0.63;0.60;;;;;;;;;;5175884;23;20027;-59
2023/06/11 10:10:38;;;;;;;0.60;0.60;;;;;;;;;;5175947;23;20091;-60
2023/06/11 10:12:58;;;;;;;0.60;0.60;;;;;;;;;;5176028;23;20298;-60
2023/06/11 10:15:21;;;;;;;0.70;0.70;;;;;;;;;;5175762;23;20027;-60
2023/06/11 10:17:49;;;;;;;0.52;0.50;;;;;;;;;;5176035;23;20111;-60
2023/06/11 10:20:16;;;;;;;0.60;0.60;;;;;;;;;;5175921;23;20034;-60
2023/06/11 10:22:37;;;;;;;0.60;0.60;;;;;;;;;;5175925;23;20379;-60
2023/06/11 10:25:01;;;;;;;0.60;0.60;;;;;;;;;;5176112;23;20051;-60
2023/06/11 10:27:21;;;;;;;1.17;0.60;;;;;;;;;;5176018;23;20023;-60
2023/06/11 10:29:43;;;;;;;0.60;0.60;;;;;;;;;;5175894;23;20023;-60
2023/06/11 10:32:04;;;;;;;1.10;0.60;;;;;;;;;;5175886;23;20364;-60
2023/06/11 10:34:25;;;;;;;0.63;0.60;;;;;;;;;;5153442;23;20207;-60
2023/06/11 10:36:45;;;;;;;0.60;0.60;;;;;;;;;;5175749;23;20058;-60
2023/06/11 10:39:10;;;;;;;0.63;0.60;;;;;;;;;;5175976;23;20058;-60
2023/06/11 10:41:30;;;;;;;0.50;0.50;;;;;;;;;;5175749;23;20027;-60
2023/06/11 10:43:51;;;;;;;1.55;0.50;;;;;;;;;;5175846;23;20047;-61
2023/06/11 10:46:18;;;;;;;0.57;0.57;;;;;;;;;;5175713;23;20062;-60
2023/06/11 10:48:49;;;;;;;0.60;0.60;;;;;;;;;;5175775;23;20042;-60
2023/06/11 10:51:13;;;;;;;0.50;0.50;;;;;;;;;;5175749;23;20337;-60
2023/06/11 10:53:37;;;;;;;0.60;0.60;;;;;;;;;;5175688;23;20024;-60
2023/06/11 10:55:57;;;;;;;0.50;0.50;;;;;;;;;;5175863;23;20270;-60
2023/06/11 10:58:23;;;;;;;0.50;0.50;;;;;;;;;;5175851;23;20023;-60
2023/06/11 11:00:43;;;;;;;0.50;0.50;;;;;;;;;;5175674;23;20207;-60
2023/06/11 11:03:04;;;;;;;0.60;0.60;;;;;;;;;;5175699;23;20062;-60
2023/06/11 11:05:28;;;;;;;2.17;0.60;;;;;;;;;;5175854;23;20096;-59
2023/06/11 11:07:49;;;;;;;0.60;0.60;;;;;;;;;;5175745;23;20027;-60
2023/06/11 11:10:10;;;;;;;0.52;0.52;;;;;;;;;;5175652;23;20215;-60
2023/06/11 11:12:41;;;;;;;0.95;0.60;;;;;;;;;;5175751;23;20266;-60
2023/06/11 11:15:01;;;;;;;3.60;0.65;;;;;;;;;;5175718;23;20063;-60
2023/06/11 11:17:21;;;;;;;0.60;0.60;;;;;;;;;;5175711;23;20052;-60
2023/06/11 11:19:42;;;;;;;0.60;0.60;;;;;;;;;;5175696;23;20066;-60
2023/06/11 11:22:02;;;;;;;0.60;0.60;;;;;;;;;;5175676;23;20082;-59
2023/06/11 11:24:23;;;;;;;0.60;0.60;;;;;;;;;;5175666;23;20249;-60
2023/06/11 11:26:44;;;;;;;2.40;0.60;;;;;;;;;;5175668;23;20031;-60
2023/06/11 11:29:04;;;;;;;0.60;0.60;;;;;;;;;;5175644;23;20027;-60
2023/06/11 11:31:25;;;;;;;0.57;0.57;;;;;;;;;;5175645;23;20031;-60
2023/06/11 11:33:45;;;;;;;0.60;0.60;;;;;;;;;;5175610;23;20207;-60
2023/06/11 11:36:06;;;;;;;1.15;0.60;;;;;;;;;;5175699;23;20065;-59
2023/06/11 11:38:33;;;;;;;0.60;0.60;;;;;;;;;;5175624;23;20022;-60
2023/06/11 11:40:54;;;;;;;1.52;0.70;;;;;;;;;;5175505;22;20058;-60
2023/06/11 11:43:15;;;;;;;1.00;0.52;;;;;;;;;;5175615;23;20023;-60
2023/06/11 11:45:35;;;;;;;0.60;0.60;;;;;;;;;;5175667;23;20055;-60
2023/06/11 11:47:55;;;;;;;0.43;0.43;;;;;;;;;;5175500;23;20047;-60
2023/06/11 11:50:25;;;;;;;0.50;0.50;;;;;;;;;;5175653;23;20062;-59
2023/06/11 11:52:58;;;;;;;0.50;0.50;;;;;;;;;;5175940;23;20058;-59
2023/06/11 11:55:19;;;;;;;0.50;0.50;;;;;;;;;;5175558;23;20035;-59
2023/06/11 11:57:40;;;;;;;1.40;0.50;;;;;;;;;;5175634;23;20023;-59
2023/06/11 12:00:00;;;;;;;0.50;0.50;;;;;;;;;;5175408;23;20026;-58
2023/06/11 12:02:26;;;;;;;0.60;0.60;;;;;;;;;;5175388;23;20084;-58
2023/06/11 12:04:47;;;;;;;0.50;0.50;;;;;;;;;;5175595;23;20035;-58
2023/06/11 12:07:15;;;;;;;0.50;0.50;;;;;;;;;;5175548;23;20057;-58
2023/06/11 12:09:35;;;;;;;1.58;0.60;;;;;;;;;;5175554;23;20042;-59
2023/06/11 12:11:55;;;;;;;0.50;0.50;;;;;;;;;;5175761;23;20083;-58
2023/06/11 12:14:25;;;;;;;0.50;0.50;;;;;;;;;;5175586;23;20054;-58
2023/06/11 12:16:49;;;;;;;1.40;0.60;;;;;;;;;;5175539;23;20023;-58
2023/06/11 12:19:10;;;;;;;0.60;0.60;;;;;;;;;;5175719;23;20026;-58
2023/06/11 12:21:42;;;;;;;0.60;0.60;;;;;;;;;;5175593;23;20022;-59
2023/06/11 12:24:03;;;;;;;0.50;0.50;;;;;;;;;;5175634;23;20027;-58
2023/06/11 12:26:23;;;;;;;0.60;0.60;;;;;;;;;;5175519;23;20077;-58
2023/06/11 12:28:44;;;;;;;0.57;0.57;;;;;;;;;;5175720;23;20059;-58
2023/06/11 12:31:04;;;;;;;1.10;0.60;;;;;;;;;;5175801;23;20035;-58
2023/06/11 12:33:24;;;;;;;1.95;0.60;;;;;;;;;;5175580;23;20070;-58
2023/06/11 12:35:44;;;;;;;0.60;0.60;;;;;;;;;;5175675;23;20394;-58
2023/06/11 12:38:06;;;;;;;0.60;0.60;;;;;;;;;;5175549;23;20206;-58
2023/06/11 12:40:28;;;;;;;1.75;0.60;;;;;;;;;;5175344;22;20027;-58
2023/06/11 12:42:56;;;;;;;4.35;0.70;;;;;;;;;;5175353;23;20038;-58
2023/06/11 12:45:16;;;;;;;1.55;0.77;;;;;;;;;;5175422;23;20023;-59
2023/06/11 12:47:38;;;;;;;0.60;0.60;;;;;;;;;;5175504;23;20027;-59
2023/06/11 12:49:58;;;;;;;0.60;0.60;;;;;;;;;;5175556;23;20079;-58
2023/06/11 12:52:19;;;;;;;0.60;0.60;;;;;;;;;;5175461;23;20048;-59
2023/06/11 12:54:39;;;;;;;0.60;0.60;;;;;;;;;;5175528;23;20026;-59
2023/06/11 12:56:59;;;;;;;0.60;0.60;;;;;;;;;;5175288;23;20078;-58
2023/06/11 12:59:22;;;;;;;0.60;0.60;;;;;;;;;;5175403;23;20032;-58
2023/06/11 13:01:42;;;;;;;0.60;0.60;;;;;;;;;;5175405;23;20123;-58
2023/06/11 13:04:02;;;;;;;0.60;0.60;;;;;;;;;;5175399;23;20115;-59
2023/06/11 13:06:23;;;;;;;0.82;0.60;;;;;;;;;;5175460;23;20066;-59
2023/06/11 13:08:43;;;;;;;0.55;0.52;;;;;;;;;;5175395;23;20042;-58
2023/06/11 13:11:04;;;;;;;0.60;0.60;;;;;;;;;;5175423;23;20170;-59
2023/06/11 13:13:24;;;;;;;0.60;0.60;;;;;;;;;;5175134;23;20023;-58
2023/06/11 13:15:45;;;;;;;0.57;0.57;;;;;;;;;;5175279;23;20391;-59
2023/06/11 13:18:06;;;;;;;0.50;0.50;;;;;;;;;;5175451;23;20023;-59
2023/06/11 13:20:28;;;;;;;0.50;0.50;;;;;;;;;;5175220;23;20042;-58
2023/06/11 13:22:49;;;;;;;0.60;0.60;;;;;;;;;;5175045;23;20392;-59
2023/06/11 13:25:09;;;;;;;0.57;0.57;;;;;;;;;;5175207;23;20054;-59
2023/06/11 13:27:29;;;;;;;0.60;0.60;;;;;;;;;;5175213;23;20023;-59
2023/06/11 13:29:50;;;;;;;0.60;0.60;;;;;;;;;;5175119;23;20027;-59
2023/06/11 13:32:10;;;;;;;0.50;0.50;;;;;;;;;;5175054;23;20341;-58
2023/06/11 13:34:30;;;;;;;1.95;0.70;;;;;;;;;;5174966;23;20079;-59
2023/06/11 13:36:56;;;;;;;0.50;0.50;;;;;;;;;;5174886;23;20031;-59
2023/06/11 13:39:16;;;;;;;0.60;0.60;;;;;;;;;;5174948;23;20387;-58
2023/06/11 13:41:36;;;;;;;0.60;0.60;;;;;;;;;;5175153;23;20038;-58
2023/06/11 13:43:56;;;;;;;1.20;0.50;;;;;;;;;;5174947;23;20216;-59
2023/06/11 13:46:17;;;;;;;0.50;0.50;;;;;;;;;;5174969;23;20220;-59
2023/06/11 13:48:37;;;;;;;0.50;0.50;;;;;;;;;;5174936;23;20027;-59
2023/06/11 13:50:57;;;;;;;0.63;0.60;;;;;;;;;;5175239;23;20027;-59
2023/06/11 13:53:21;;;;;;;0.80;0.80;;;;;;;;;;5176234;23;20099;-59
2023/06/11 13:55:42;;;;;;;0.50;0.50;;;;;;;;;;5176070;23;20027;-58
2023/06/11 13:58:06;;;;;;;0.60;0.60;;;;;;;;;;5176047;23;20066;-59
2023/06/11 14:00:26;;;;;;;0.60;0.60;;;;;;;;;;5176082;23;20035;-59
2023/06/11 14:02:46;;;;;;;0.60;0.60;;;;;;;;;;5176077;23;20262;-59
2023/06/11 14:05:07;;;;;;;0.63;0.63;;;;;;;;;;5176685;23;20087;-59
2023/06/11 14:07:27;;;;;;;1.65;0.60;;;;;;;;;;5176161;23;20250;-58